Time;durP1;ratioP1;P1;durP2;ratioP2;P2;SDS_P1;SDS_P2;PMS_P1;PMS_P2;Temp;Humidity;BMP_temperature;BMP_pressure;BME280_temperature;BME280_humidity;BME280_pressure;Samples;Min_cycle;Max_cycle;Signal;HPM_P1;HPM_P2
2022/10/19 00:02:03;;;;;;;3.90;2.50;;;11.90;99.90;;;;;;5190357;28;20214;-52
2022/10/19 00:04:34;;;;;;;11.00;2.77;;;11.90;99.90;;;;;;5205144;28;20267;-51
2022/10/19 00:07:05;;;;;;;13.10;3.77;;;11.90;99.90;;;;;;5202339;28;20258;-51
2022/10/19 00:09:35;;;;;;;8.83;2.47;;;11.90;99.90;;;;;;5203771;28;20266;-52
2022/10/19 00:12:06;;;;;;;9.30;2.33;;;11.90;99.90;;;;;;5196347;28;20200;-52
2022/10/19 00:14:36;;;;;;;2.50;1.90;;;11.90;99.90;;;;;;5199646;28;20649;-52
2022/10/19 00:17:07;;;;;;;7.73;2.83;;;11.90;99.90;;;;;;5201113;28;20175;-49
2022/10/19 00:19:38;;;;;;;9.60;2.20;;;11.90;99.90;;;;;;5203998;28;20217;-50
2022/10/19 00:22:08;;;;;;;14.00;2.37;;;11.90;99.90;;;;;;5198166;28;20196;-50
2022/10/19 00:24:39;;;;;;;7.30;2.53;;;11.90;99.90;;;;;;5206303;28;20180;-50
2022/10/19 00:27:09;;;;;;;6.00;2.10;;;11.90;99.90;;;;;;5201676;28;20215;-51
2022/10/19 00:29:40;;;;;;;5.13;2.20;;;11.90;99.90;;;;;;5196955;28;20196;-51
2022/10/19 00:32:10;;;;;;;7.53;2.40;;;11.90;99.90;;;;;;5205802;28;20218;-51
2022/10/19 00:34:41;;;;;;;8.57;2.80;;;11.90;99.90;;;;;;5198751;28;20200;-51
2022/10/19 00:37:11;;;;;;;15.50;2.90;;;11.80;99.90;;;;;;5199796;28;20182;-51
2022/10/19 00:39:42;;;;;;;10.30;3.50;;;11.80;99.90;;;;;;5204187;28;20180;-50
2022/10/19 00:42:13;;;;;;;16.83;2.67;;;11.90;99.90;;;;;;5193985;28;20200;-49
2022/10/19 00:44:46;;;;;;;2.97;2.37;;;11.90;99.90;;;;;;5201364;28;20222;-48
2022/10/19 00:47:19;;;;;;;6.63;2.70;;;11.90;99.90;;;;;;5203836;28;20187;-51
2022/10/19 00:49:51;;;;;;;5.10;2.00;;;12.00;99.90;;;;;;5206147;28;20422;-52
2022/10/19 00:52:23;;;;;;;5.70;2.50;;;11.90;99.90;;;;;;5197742;28;20917;-49
2022/10/19 00:54:56;;;;;;;11.23;2.40;;;12.00;99.90;;;;;;5201537;28;20434;-49
2022/10/19 00:57:29;;;;;;;7.13;1.97;;;12.00;99.90;;;;;;5205996;28;20441;-51
2022/10/19 01:00:02;;;;;;;6.57;2.00;;;12.00;99.90;;;;;;5199561;28;20483;-53
2022/10/19 01:02:33;;;;;;;5.80;1.77;;;12.00;99.90;;;;;;5203858;28;20447;-48
2022/10/19 01:05:05;;;;;;;2.63;1.73;;;12.00;99.90;;;;;;5203326;28;20426;-52
2022/10/19 01:07:35;;;;;;;13.23;2.27;;;11.90;99.90;;;;;;5203887;28;20430;-49
2022/10/19 01:10:06;;;;;;;5.67;2.00;;;11.90;99.90;;;;;;5190057;28;21008;-51
2022/10/19 01:12:37;;;;;;;4.73;1.37;;;11.90;99.90;;;;;;5207933;28;20210;-53
2022/10/19 01:15:21;;;;;;;5.03;2.10;;;11.90;99.90;;;;;;5206623;28;20438;-51
2022/10/19 01:18:03;;;;;;;1.70;1.60;;;11.90;99.90;;;;;;5205963;28;20183;-50
2022/10/19 01:20:40;;;;;;;4.60;1.70;;;12.00;99.90;;;;;;5207270;28;20531;-50
2022/10/19 01:23:16;;;;;;;11.20;2.13;;;11.90;99.90;;;;;;5205174;28;20430;-50
2022/10/19 01:26:12;;;;;;;2.83;1.20;;;12.00;99.90;;;;;;5200773;28;20876;-49
2022/10/19 01:29:17;;;;;;;3.37;1.60;;;11.90;99.90;;;;;;5204325;28;20426;-52
2022/10/19 01:32:00;;;;;;;1.87;1.47;;;12.00;99.90;;;;;;5204503;28;20469;-52
2022/10/19 01:34:39;;;;;;;3.03;1.00;;;12.00;99.90;;;;;;5199027;28;20469;-50
2022/10/19 01:37:35;;;;;;;1.13;1.03;;;12.00;99.90;;;;;;5203145;28;20442;-50
2022/10/19 01:40:25;;;;;;;6.97;1.90;;;12.10;99.90;;;;;;5193616;28;20981;-51
2022/10/19 01:43:06;;;;;;;2.40;1.20;;;12.10;99.90;;;;;;5197446;28;20434;-50
2022/10/19 01:45:49;;;;;;;4.90;1.30;;;12.00;99.90;;;;;;5200748;28;20430;-49
2022/10/19 01:48:25;;;;;;;1.83;0.87;;;12.00;99.90;;;;;;5204161;28;20438;-49
2022/10/19 01:51:00;;;;;;;14.07;2.00;;;12.10;99.90;;;;;;5185575;28;20498;-51
2022/10/19 01:53:38;;;;;;;17.57;1.40;;;12.10;99.90;;;;;;5201081;28;20461;-50
2022/10/19 01:56:10;;;;;;;3.13;1.37;;;12.10;99.90;;;;;;5204497;28;20959;-48
2022/10/19 01:58:43;;;;;;;4.93;1.33;;;12.20;99.90;;;;;;5192529;28;20918;-51
2022/10/19 02:01:17;;;;;;;2.37;1.30;;;12.20;99.90;;;;;;5198438;28;20445;-50
2022/10/19 02:03:49;;;;;;;4.33;1.20;;;12.10;99.90;;;;;;5216507;28;20445;-48
2022/10/19 02:06:21;;;;;;;3.67;1.43;;;12.20;99.90;;;;;;5217089;28;20430;-51
2022/10/19 02:08:53;;;;;;;12.30;1.73;;;12.10;99.90;;;;;;5211258;28;20542;-52
2022/10/19 02:11:24;;;;;;;2.00;1.60;;;12.10;99.90;;;;;;5208756;28;20880;-51
2022/10/19 02:14:03;;;;;;;6.30;1.90;;;12.10;99.90;;;;;;5216545;28;20940;-50
2022/10/19 02:16:41;;;;;;;6.87;1.47;;;12.10;99.90;;;;;;5210415;28;20444;-50
2022/10/19 02:19:15;;;;;;;9.30;1.60;;;12.00;99.90;;;;;;5213713;28;20547;-50
2022/10/19 02:21:46;;;;;;;8.07;1.87;;;12.00;99.90;;;;;;5215539;28;20450;-50
2022/10/19 02:24:17;;;;;;;2.60;1.23;;;12.00;99.90;;;;;;5214549;28;20483;-50
2022/10/19 02:26:48;;;;;;;5.30;1.70;;;12.00;99.90;;;;;;5213529;28;20262;-51
2022/10/19 02:29:19;;;;;;;6.10;1.93;;;12.00;99.90;;;;;;5214170;28;20660;-51
2022/10/19 02:31:49;;;;;;;7.13;1.47;;;11.90;99.90;;;;;;5208859;28;20436;-52
2022/10/19 02:34:20;;;;;;;1.83;1.30;;;11.90;99.90;;;;;;5211981;28;20299;-52
2022/10/19 02:36:50;;;;;;;4.50;1.73;;;11.90;99.90;;;;;;5206323;28;20191;-50
2022/10/19 02:39:21;;;;;;;2.30;1.73;;;11.90;99.90;;;;;;5211544;28;20715;-52
2022/10/19 02:42:10;;;;;;;3.20;1.60;;;11.90;99.90;;;;;;5210881;28;20209;-53
2022/10/19 02:44:51;;;;;;;2.17;0.90;;;12.00;99.90;;;;;;5228825;28;20586;-51
2022/10/19 02:47:28;;;;;;;5.50;1.63;;;11.90;99.90;;;;;;5207968;28;20462;-50
2022/10/19 02:50:03;;;;;;;4.33;1.40;;;11.90;99.90;;;;;;5211703;28;20506;-47
2022/10/19 02:52:36;;;;;;;17.13;1.80;;;11.90;99.90;;;;;;5212126;28;20953;-52
2022/10/19 02:55:08;;;;;;;9.90;1.90;;;11.90;99.90;;;;;;5214593;28;21147;-52
2022/10/19 02:57:38;;;;;;;5.00;1.37;;;12.00;99.90;;;;;;5219072;28;20453;-51
2022/10/19 03:00:10;;;;;;;4.67;1.50;;;11.90;99.90;;;;;;5213445;28;20445;-54
2022/10/19 03:02:40;;;;;;;4.03;1.97;;;12.00;99.90;;;;;;5196606;28;20748;-50
2022/10/19 03:05:11;;;;;;;2.97;1.67;;;12.00;99.90;;;;;;5214606;28;20510;-52
2022/10/19 03:07:42;;;;;;;4.53;1.87;;;11.90;99.90;;;;;;5204666;28;20222;-52
2022/10/19 03:10:12;;;;;;;6.80;1.60;;;11.80;99.90;;;;;;5210807;28;20250;-50
2022/10/19 03:12:43;;;;;;;4.27;1.37;;;11.80;99.90;;;;;;5213493;28;20500;-53
2022/10/19 03:15:15;;;;;;;4.20;1.47;;;11.80;99.90;;;;;;5216084;28;20636;-52
2022/10/19 03:17:46;;;;;;;4.33;1.87;;;11.80;99.90;;;;;;5210392;28;20206;-53
2022/10/19 03:20:16;;;;;;;5.43;1.50;;;11.70;99.90;;;;;;5214487;28;20968;-53
2022/10/19 03:22:47;;;;;;;3.30;1.57;;;11.80;99.90;;;;;;5217247;28;20187;-51
2022/10/19 03:25:18;;;;;;;0.90;0.90;;;11.80;99.90;;;;;;5215502;28;20553;-50
2022/10/19 03:27:48;;;;;;;7.20;1.60;;;11.80;99.90;;;;;;5217668;28;20187;-49
2022/10/19 03:30:19;;;;;;;1.50;0.90;;;11.70;99.90;;;;;;5219758;28;20199;-51
2022/10/19 03:32:49;;;;;;;3.23;1.20;;;11.80;99.90;;;;;;5220087;28;20268;-48
2022/10/19 03:35:20;;;;;;;1.27;1.17;;;11.80;99.90;;;;;;5217498;28;20534;-51
2022/10/19 03:37:50;;;;;;;5.00;1.37;;;11.70;99.90;;;;;;5210421;28;20767;-50
2022/10/19 03:40:21;;;;;;;7.93;1.27;;;11.70;99.90;;;;;;5220194;28;20215;-50
2022/10/19 03:42:51;;;;;;;11.53;1.50;;;11.60;99.90;;;;;;5216405;28;20662;-51
2022/10/19 03:45:22;;;;;;;1.33;0.80;;;11.60;99.90;;;;;;5217088;28;20194;-50
2022/10/19 03:47:53;;;;;;;3.30;0.70;;;11.60;99.90;;;;;;5212953;28;20646;-51
2022/10/19 03:50:23;;;;;;;1.53;0.80;;;11.60;99.90;;;;;;5213561;28;20215;-52
2022/10/19 03:52:54;;;;;;;1.00;0.63;;;11.60;99.90;;;;;;5212710;28;20325;-51
2022/10/19 03:55:24;;;;;;;5.00;1.20;;;11.60;99.90;;;;;;5212819;28;20523;-52
2022/10/19 03:57:56;;;;;;;1.77;0.90;;;11.70;99.90;;;;;;5219070;28;20677;-51
2022/10/19 04:00:27;;;;;;;2.30;0.90;;;11.70;99.90;;;;;;5215275;28;20800;-51
2022/10/19 04:02:57;;;;;;;10.50;0.93;;;11.60;99.90;;;;;;5211252;28;20528;-52
2022/10/19 04:05:28;;;;;;;2.90;0.87;;;11.60;99.90;;;;;;5214476;28;20205;-51
2022/10/19 04:07:58;;;;;;;3.30;0.97;;;11.60;99.90;;;;;;5215945;28;20191;-51
2022/10/19 04:10:30;;;;;;;2.87;1.13;;;11.60;99.90;;;;;;5220021;28;20211;-49
2022/10/19 04:13:00;;;;;;;1.77;0.93;;;11.60;99.90;;;;;;5212621;28;20207;-50
2022/10/19 04:15:31;;;;;;;1.23;0.90;;;11.60;99.90;;;;;;5199071;28;20461;-50
2022/10/19 04:18:01;;;;;;;1.40;1.20;;;11.60;99.90;;;;;;5199174;28;20206;-50
2022/10/19 04:20:32;;;;;;;6.13;1.00;;;11.60;99.90;;;;;;5209403;28;20214;-52
2022/10/19 04:23:03;;;;;;;9.80;1.30;;;11.70;99.90;;;;;;5206803;28;20278;-50
2022/10/19 04:25:33;;;;;;;2.80;0.90;;;11.70;99.90;;;;;;5203016;28;20596;-53
2022/10/19 04:28:04;;;;;;;2.87;0.90;;;11.70;99.90;;;;;;5195233;28;20259;-52
2022/10/19 04:30:35;;;;;;;4.83;1.20;;;11.60;99.90;;;;;;5198746;28;20215;-51
2022/10/19 04:33:05;;;;;;;2.30;1.27;;;11.60;99.90;;;;;;5208903;28;20286;-51
2022/10/19 04:35:36;;;;;;;3.10;1.40;;;11.60;99.90;;;;;;5209134;28;20640;-52
2022/10/19 04:38:06;;;;;;;5.33;1.10;;;11.60;99.90;;;;;;5205023;28;20658;-50
2022/10/19 04:40:37;;;;;;;4.10;0.90;;;11.60;99.90;;;;;;5204550;28;20246;-48
2022/10/19 04:43:08;;;;;;;1.10;1.10;;;11.50;99.90;;;;;;5208112;28;20191;-51
2022/10/19 04:45:38;;;;;;;7.23;0.97;;;11.60;99.90;;;;;;5201819;28;20641;-51
2022/10/19 04:48:09;;;;;;;4.00;1.23;;;11.60;99.90;;;;;;5194936;28;20269;-47
2022/10/19 04:50:39;;;;;;;8.83;1.20;;;11.60;99.90;;;;;;5202252;28;20249;-49
2022/10/19 04:53:10;;;;;;;4.00;1.00;;;11.60;99.90;;;;;;5206242;28;20214;-52
2022/10/19 04:55:41;;;;;;;7.90;1.67;;;11.50;99.90;;;;;;5206314;28;20524;-52
2022/10/19 04:58:11;;;;;;;1.37;0.90;;;11.60;99.90;;;;;;5218399;28;20179;-52
2022/10/19 05:00:42;;;;;;;24.93;1.73;;;11.50;99.90;;;;;;5213854;28;20859;-50
2022/10/19 05:03:13;;;;;;;1.53;1.30;;;11.60;99.90;;;;;;5196855;28;20192;-51
2022/10/19 05:05:44;;;;;;;10.00;1.27;;;11.60;99.90;;;;;;5203016;28;20184;-49
2022/10/19 05:08:14;;;;;;;5.33;1.10;;;11.70;99.90;;;;;;5211461;28;20532;-51
2022/10/19 05:10:45;;;;;;;2.83;1.10;;;11.60;99.90;;;;;;5207364;28;20614;-49
2022/10/19 05:13:15;;;;;;;4.30;1.47;;;11.60;99.90;;;;;;5202583;28;20369;-51
2022/10/19 05:15:57;;;;;;;4.17;0.93;;;11.60;99.90;;;;;;5200943;28;20191;-51
2022/10/19 05:18:28;;;;;;;10.47;1.40;;;11.50;99.90;;;;;;5198674;28;20270;-50
2022/10/19 05:21:06;;;;;;;1.43;1.00;;;11.50;99.90;;;;;;5194305;28;20530;-49
2022/10/19 05:23:38;;;;;;;2.10;0.77;;;11.50;99.90;;;;;;5203080;28;20598;-49
2022/10/19 05:26:22;;;;;;;3.53;1.00;;;11.40;99.90;;;;;;5201028;28;20750;-51
2022/10/19 05:28:55;;;;;;;4.00;1.30;;;11.40;99.90;;;;;;5202653;28;20799;-50
2022/10/19 05:31:31;;;;;;;2.20;2.00;;;11.40;99.90;;;;;;5204165;28;20490;-50
2022/10/19 05:34:02;;;;;;;2.40;0.97;;;11.30;99.90;;;;;;5199273;28;20474;-51
2022/10/19 05:36:35;;;;;;;4.23;1.10;;;11.20;99.90;;;;;;5196145;28;20446;-51
2022/10/19 05:39:12;;;;;;;3.83;1.23;;;11.00;99.90;;;;;;5200275;28;20435;-50
2022/10/19 05:41:44;;;;;;;3.40;0.90;;;10.90;99.90;;;;;;5199369;28;20448;-50
2022/10/19 05:44:20;;;;;;;10.07;2.60;;;10.90;99.90;;;;;;5195068;28;20434;-51
2022/10/19 05:46:51;;;;;;;7.80;1.20;;;10.80;99.90;;;;;;5197599;28;20442;-51
2022/10/19 05:49:21;;;;;;;2.93;1.10;;;10.90;99.90;;;;;;5201048;28;20452;-49
2022/10/19 05:51:52;;;;;;;1.20;1.03;;;10.90;99.90;;;;;;5198767;28;20228;-51
2022/10/19 05:54:23;;;;;;;1.43;1.17;;;11.00;99.90;;;;;;5196927;28;20292;-51
2022/10/19 05:56:53;;;;;;;10.53;1.40;;;11.00;99.90;;;;;;5209688;28;20211;-50
2022/10/19 05:59:24;;;;;;;2.87;1.50;;;11.10;99.90;;;;;;5202880;28;20582;-52
2022/10/19 06:01:55;;;;;;;13.67;3.67;;;11.10;99.90;;;;;;5206473;28;20831;-51
2022/10/19 06:04:25;;;;;;;6.00;2.83;;;11.20;99.90;;;;;;5204466;28;20282;-50
2022/10/19 06:06:56;;;;;;;5.27;1.30;;;11.30;99.90;;;;;;5205677;28;20184;-49
2022/10/19 06:09:26;;;;;;;2.07;1.20;;;11.30;99.90;;;;;;5205885;28;20199;-51
2022/10/19 06:11:57;;;;;;;3.87;1.20;;;11.30;99.90;;;;;;5194466;28;20295;-49
2022/10/19 06:14:28;;;;;;;2.23;1.13;;;11.30;99.90;;;;;;5203442;28;20221;-50
2022/10/19 06:16:58;;;;;;;3.03;1.23;;;11.40;99.90;;;;;;5204473;28;20183;-52
2022/10/19 06:19:29;;;;;;;4.80;0.73;;;11.50;99.90;;;;;;5205227;28;20191;-52
2022/10/19 06:21:59;;;;;;;1.77;0.77;;;11.40;99.90;;;;;;5199477;28;20215;-52
2022/10/19 06:24:30;;;;;;;8.40;1.60;;;11.50;99.90;;;;;;5205978;28;20196;-53
2022/10/19 06:27:00;;;;;;;3.80;1.50;;;11.60;99.90;;;;;;5209729;28;20188;-50
2022/10/19 06:29:31;;;;;;;3.10;1.27;;;11.60;99.90;;;;;;5195205;28;20196;-51
2022/10/19 06:32:02;;;;;;;4.10;1.40;;;11.60;99.90;;;;;;5205975;28;20211;-51
2022/10/19 06:34:32;;;;;;;5.03;1.60;;;11.70;99.90;;;;;;5204680;28;20227;-53
2022/10/19 06:37:03;;;;;;;7.70;2.17;;;11.60;99.90;;;;;;5204316;28;20556;-51
2022/10/19 06:39:33;;;;;;;5.10;1.70;;;11.60;99.90;;;;;;5194163;28;20544;-52
2022/10/19 06:42:04;;;;;;;12.13;2.27;;;11.70;99.90;;;;;;5204524;28;20261;-50
2022/10/19 06:44:34;;;;;;;2.30;1.13;;;11.80;99.90;;;;;;5218861;28;20552;-50
2022/10/19 06:47:05;;;;;;;4.83;1.80;;;11.70;99.90;;;;;;5203279;28;20192;-52
2022/10/19 06:49:36;;;;;;;7.90;1.50;;;11.80;99.90;;;;;;5203123;28;20191;-50
2022/10/19 06:52:07;;;;;;;1.70;1.00;;;11.80;99.90;;;;;;5203565;28;20562;-53
2022/10/19 06:54:37;;;;;;;10.00;1.67;;;11.80;99.90;;;;;;5198510;28;20688;-53
2022/10/19 06:57:08;;;;;;;9.57;1.10;;;11.80;99.90;;;;;;5210412;28;20960;-52
2022/10/19 06:59:38;;;;;;;3.60;1.27;;;11.80;99.90;;;;;;5195609;28;20183;-50
2022/10/19 07:02:11;;;;;;;4.07;1.23;;;11.90;99.90;;;;;;5201361;28;20208;-52
2022/10/19 07:04:41;;;;;;;1.23;1.00;;;11.90;99.90;;;;;;5205252;28;20728;-52
2022/10/19 07:07:12;;;;;;;1.50;1.40;;;12.10;99.90;;;;;;5199419;28;20601;-52
2022/10/19 07:09:42;;;;;;;6.00;1.30;;;12.30;99.90;;;;;;5199045;28;20238;-53
2022/10/19 07:12:13;;;;;;;5.83;1.47;;;12.50;99.90;;;;;;5193581;28;20267;-51
2022/10/19 07:14:44;;;;;;;3.47;1.43;;;12.60;99.90;;;;;;5197279;28;20223;-54
2022/10/19 07:17:14;;;;;;;1.17;1.10;;;12.60;99.90;;;;;;5199840;28;20175;-53
2022/10/19 07:19:45;;;;;;;3.07;1.40;;;12.60;99.90;;;;;;5198715;28;20183;-52
2022/10/19 07:22:15;;;;;;;9.83;1.73;;;12.70;99.90;;;;;;5205381;28;20218;-52
2022/10/19 07:24:46;;;;;;;4.40;1.50;;;12.80;99.90;;;;;;5205423;28;20271;-51
2022/10/19 07:27:17;;;;;;;3.53;1.00;;;13.10;99.90;;;;;;5206623;28;20547;-50
2022/10/19 07:29:48;;;;;;;9.10;1.47;;;13.40;99.90;;;;;;5210170;28;20198;-50
2022/10/19 07:32:18;;;;;;;13.00;2.90;;;13.20;99.90;;;;;;5199847;28;20258;-51
2022/10/19 07:34:49;;;;;;;2.83;1.70;;;13.20;99.90;;;;;;5198407;28;20204;-52
2022/10/19 07:37:19;;;;;;;6.97;1.70;;;13.20;99.90;;;;;;5203872;28;20183;-51
2022/10/19 07:39:50;;;;;;;4.20;0.90;;;13.40;99.90;;;;;;5200330;28;20195;-52
2022/10/19 07:42:20;;;;;;;4.43;1.23;;;13.40;99.90;;;;;;5202521;28;20187;-51
2022/10/19 07:44:51;;;;;;;6.47;1.20;;;13.50;99.90;;;;;;5213158;28;20194;-51
2022/10/19 07:47:21;;;;;;;3.43;1.07;;;13.20;99.90;;;;;;5204435;28;20730;-51
2022/10/19 07:49:52;;;;;;;1.23;1.13;;;13.20;99.90;;;;;;5201167;28;20195;-53
2022/10/19 07:52:22;;;;;;;4.63;1.37;;;13.50;99.90;;;;;;5204252;28;20198;-49
2022/10/19 07:54:54;;;;;;;3.23;1.10;;;13.70;99.90;;;;;;5200940;28;20673;-51
2022/10/19 07:57:25;;;;;;;4.30;1.93;;;13.50;99.90;;;;;;5204499;28;20194;-52
2022/10/19 07:59:55;;;;;;;3.93;1.17;;;13.60;99.90;;;;;;5186459;28;20562;-51
2022/10/19 08:02:26;;;;;;;4.70;1.50;;;13.50;99.90;;;;;;5197595;28;20208;-51
2022/10/19 08:04:56;;;;;;;9.10;1.50;;;13.50;99.90;;;;;;5203458;28;20188;-51
2022/10/19 08:07:27;;;;;;;5.67;1.10;;;13.50;99.90;;;;;;5205990;28;20197;-53
2022/10/19 08:09:57;;;;;;;2.10;1.10;;;13.20;99.90;;;;;;5203500;28;20226;-48
2022/10/19 08:12:28;;;;;;;2.50;1.00;;;12.90;99.90;;;;;;5202193;28;20818;-51
2022/10/19 08:14:58;;;;;;;3.60;1.47;;;12.70;99.90;;;;;;5202303;28;20257;-51
2022/10/19 08:17:29;;;;;;;1.57;1.50;;;12.60;99.90;;;;;;5203197;28;20183;-51
2022/10/19 08:20:00;;;;;;;5.57;2.10;;;12.80;99.90;;;;;;5197703;28;20183;-50
2022/10/19 08:22:30;;;;;;;4.67;1.87;;;13.10;99.90;;;;;;5201018;28;20466;-52
2022/10/19 08:25:01;;;;;;;4.13;1.50;;;13.40;99.90;;;;;;5199110;28;20213;-51
2022/10/19 08:27:32;;;;;;;7.17;1.40;;;13.60;99.90;;;;;;5203104;28;20222;-51
2022/10/19 08:30:02;;;;;;;5.93;1.70;;;13.70;99.90;;;;;;5204598;28;20186;-50
2022/10/19 08:32:33;;;;;;;6.13;1.90;;;13.80;99.90;;;;;;5187356;28;20231;-54
2022/10/19 08:35:04;;;;;;;5.57;1.80;;;14.00;99.90;;;;;;5207927;28;20563;-51
2022/10/19 08:37:35;;;;;;;12.47;2.40;;;14.10;99.90;;;;;;5201717;28;20183;-51
2022/10/19 08:40:19;;;;;;;3.10;0.93;;;14.10;99.90;;;;;;5202139;28;20464;-52
2022/10/19 08:42:57;;;;;;;1.83;1.70;;;13.90;99.90;;;;;;5202287;28;20191;-53
2022/10/19 08:45:40;;;;;;;8.70;1.27;;;14.10;99.90;;;;;;5199552;28;20450;-51
2022/10/19 08:48:24;;;;;;;8.90;2.00;;;14.20;99.90;;;;;;5190360;28;20521;-52
2022/10/19 08:50:57;;;;;;;2.13;1.43;;;13.80;99.90;;;;;;5195075;28;20538;-51
2022/10/19 08:53:42;;;;;;;5.07;1.70;;;13.90;99.90;;;;;;5200813;28;20461;-51
2022/10/19 08:56:22;;;;;;;9.20;1.33;;;14.00;99.90;;;;;;5206796;28;20522;-51
2022/10/19 08:59:00;;;;;;;9.30;3.00;;;14.30;99.90;;;;;;5195253;28;20434;-48
2022/10/19 09:01:51;;;;;;;2.50;1.70;;;14.40;99.90;;;;;;5192125;28;20477;-52
2022/10/19 09:04:25;;;;;;;1.37;0.90;;;14.50;99.90;;;;;;5206575;28;20479;-52
2022/10/19 09:07:25;;;;;;;4.33;1.67;;;14.60;99.90;;;;;;5207464;28;20437;-51
2022/10/19 09:10:01;;;;;;;1.73;1.30;;;14.30;99.90;;;;;;5194576;28;20477;-53
2022/10/19 09:12:43;;;;;;;4.30;1.20;;;14.30;99.90;;;;;;5204728;28;20415;-53
2022/10/19 09:15:17;;;;;;;11.20;1.40;;;14.30;99.90;;;;;;5207046;28;20475;-53
2022/10/19 09:17:48;;;;;;;5.80;1.20;;;14.40;99.90;;;;;;5202965;28;20531;-51
2022/10/19 09:20:22;;;;;;;2.17;1.47;;;14.20;99.90;;;;;;5201480;28;20878;-53
2022/10/19 09:23:11;;;;;;;3.80;1.23;;;14.20;99.90;;;;;;5202081;28;20180;-53
2022/10/19 09:25:42;;;;;;;4.10;1.20;;;14.30;99.90;;;;;;5199953;28;20445;-53
2022/10/19 09:28:37;;;;;;;1.30;1.30;;;14.10;99.90;;;;;;5201469;28;20514;-52
2022/10/19 09:31:26;;;;;;;1.90;1.40;;;14.10;99.90;;;;;;5205764;28;20203;-50
2022/10/19 09:34:02;;;;;;;6.27;1.63;;;14.00;99.90;;;;;;5202185;28;20522;-52
2022/10/19 09:36:45;;;;;;;0.77;0.60;;;14.20;99.90;;;;;;5194859;28;20756;-49
2022/10/19 09:39:17;;;;;;;2.00;1.10;;;14.30;99.90;;;;;;5206952;28;20426;-52
2022/10/19 09:41:55;;;;;;;1.03;0.90;;;14.20;99.90;;;;;;5201991;28;20512;-52
2022/10/19 09:44:26;;;;;;;1.47;1.37;;;14.10;99.90;;;;;;5200918;28;20438;-52
2022/10/19 09:47:21;;;;;;;6.50;1.20;;;14.20;99.90;;;;;;5197263;28;20438;-52
2022/10/19 09:50:07;;;;;;;2.03;1.00;;;14.50;99.90;;;;;;5194553;28;20807;-52
2022/10/19 09:52:39;;;;;;;3.37;1.60;;;14.90;99.90;;;;;;5226385;22;20501;-49
2022/10/19 09:55:42;;;;;;;4.40;1.07;;;15.20;99.90;;;;;;5227153;28;20425;-47
2022/10/19 09:58:13;;;;;;;4.07;1.10;;;15.20;99.90;;;;;;5223309;28;20837;-50
2022/10/19 10:00:49;;;;;;;2.60;1.10;;;14.80;99.90;;;;;;5228130;28;20436;-49
2022/10/19 10:03:34;;;;;;;5.13;1.10;;;14.50;99.90;;;;;;5226537;28;20192;-48
2022/10/19 10:06:11;;;;;;;3.43;1.17;;;14.20;99.90;;;;;;5222888;28;20445;-50
2022/10/19 10:08:56;;;;;;;1.30;0.90;;;14.20;99.90;;;;;;5226200;28;20531;-50
2022/10/19 10:11:31;;;;;;;6.10;1.37;;;13.90;99.90;;;;;;5223357;28;20486;-49
2022/10/19 10:14:22;;;;;;;8.53;1.83;;;13.80;99.90;;;;;;5228446;28;20471;-48
2022/10/19 10:16:57;;;;;;;4.57;1.40;;;13.80;99.90;;;;;;5224999;28;20591;-47
2022/10/19 10:19:30;;;;;;;6.13;1.13;;;13.70;99.90;;;;;;5228726;28;20429;-48
2022/10/19 10:22:03;;;;;;;2.37;1.10;;;13.50;99.90;;;;;;5224810;28;20445;-50
2022/10/19 10:24:33;;;;;;;1.50;0.80;;;13.40;99.90;;;;;;5228943;28;20417;-50
2022/10/19 10:27:05;;;;;;;1.00;0.50;;;13.50;99.90;;;;;;5228398;28;20429;-47
2022/10/19 10:29:37;;;;;;;1.97;1.00;;;13.60;99.90;;;;;;5224863;28;20185;-51
2022/10/19 10:32:18;;;;;;;2.63;1.03;;;13.70;99.90;;;;;;5221932;28;20535;-54
2022/10/19 10:35:04;;;;;;;0.97;0.53;;;13.80;99.30;;;;;;5225814;28;20465;-48
2022/10/19 10:37:46;;;;;;;1.90;0.63;;;14.00;99.00;;;;;;5222424;28;20429;-48
2022/10/19 10:40:28;;;;;;;2.53;0.77;;;14.20;96.30;;;;;;5224441;28;20441;-52
2022/10/19 10:43:12;;;;;;;2.53;1.10;;;14.30;93.10;;;;;;5217650;28;20459;-48
2022/10/19 10:45:46;;;;;;;0.60;0.60;;;14.40;93.20;;;;;;5221787;28;20662;-49
2022/10/19 10:48:35;;;;;;;1.60;1.50;;;14.60;91.50;;;;;;5215438;28;20425;-47
2022/10/19 10:51:24;;;;;;;0.73;0.57;;;14.60;91.00;;;;;;5217672;28;20485;-47
2022/10/19 10:54:15;;;;;;;2.00;0.60;;;14.60;90.80;;;;;;5227619;28;21000;-48
2022/10/19 10:57:08;;;;;;;2.07;0.70;;;14.60;90.90;;;;;;5216549;28;20429;-48
2022/10/19 11:00:15;;;;;;;1.80;0.90;;;14.70;91.50;;;;;;5227712;28;20439;-47
2022/10/19 11:03:09;;;;;;;0.83;0.77;;;14.80;89.70;;;;;;5223895;28;20558;-49
2022/10/19 11:05:44;;;;;;;3.93;2.27;;;15.00;90.90;;;;;;5221811;28;20797;-47
2022/10/19 11:08:33;;;;;;;1.07;0.90;;;15.40;90.20;;;;;;5221935;28;20451;-47
2022/10/19 11:11:21;;;;;;;2.73;0.73;;;15.70;89.00;;;;;;5221099;28;20453;-48
2022/10/19 11:14:01;;;;;;;1.57;1.50;;;15.60;84.70;;;;;;5211385;28;20463;-51
2022/10/19 11:16:40;;;;;;;1.23;1.13;;;15.60;85.20;;;;;;5216919;28;20435;-48
2022/10/19 11:19:23;;;;;;;1.27;0.80;;;15.50;83.20;;;;;;5223583;28;20473;-47
2022/10/19 11:22:03;;;;;;;1.37;0.97;;;15.40;83.40;;;;;;5225362;28;20440;-50
2022/10/19 11:24:59;;;;;;;1.13;1.10;;;15.40;84.20;;;;;;5224820;28;20490;-48
2022/10/19 11:27:48;;;;;;;1.10;1.00;;;15.40;84.50;;;;;;5223735;28;20457;-50
2022/10/19 11:30:23;;;;;;;5.60;1.97;;;15.40;83.70;;;;;;5221346;28;20445;-48
2022/10/19 11:33:00;;;;;;;0.87;0.63;;;15.40;84.00;;;;;;5221238;28;20515;-48
2022/10/19 11:35:44;;;;;;;0.60;0.60;;;15.60;82.40;;;;;;5225971;28;20475;-48
2022/10/19 11:38:33;;;;;;;4.73;1.10;;;15.50;78.90;;;;;;5222439;28;20433;-48
2022/10/19 11:41:25;;;;;;;1.00;0.87;;;15.40;79.80;;;;;;5220169;28;20548;-51
2022/10/19 11:44:30;;;;;;;5.10;1.23;;;15.30;82.10;;;;;;5220877;28;20526;-47
2022/10/19 11:47:30;;;;;;;5.07;2.70;;;15.00;85.30;;;;;;5224416;28;20855;-48
2022/10/19 11:50:09;;;;;;;2.73;0.97;;;14.80;88.60;;;;;;5223098;28;20524;-48
2022/10/19 11:53:06;;;;;;;6.70;1.33;;;14.70;90.00;;;;;;5221085;28;20476;-49
2022/10/19 11:56:00;;;;;;;2.10;0.80;;;14.50;90.70;;;;;;5222882;28;20445;-48
2022/10/19 11:59:01;;;;;;;3.23;1.70;;;14.70;91.20;;;;;;5213834;28;20438;-48
2022/10/19 12:01:35;;;;;;;2.73;1.27;;;14.90;90.30;;;;;;5220918;28;20489;-49
2022/10/19 12:04:29;;;;;;;1.60;1.30;;;15.30;89.40;;;;;;5218912;28;20503;-49
2022/10/19 12:07:04;;;;;;;1.10;0.90;;;15.20;88.30;;;;;;5237570;28;20445;-49
2022/10/19 12:09:46;;;;;;;2.30;0.93;;;15.10;88.90;;;;;;5224572;28;20421;-50
2022/10/19 12:12:30;;;;;;;3.70;0.90;;;15.00;90.30;;;;;;5223848;28;20468;-47
2022/10/19 12:15:22;;;;;;;4.23;1.73;;;14.80;90.30;;;;;;5227663;28;20467;-49
2022/10/19 12:17:57;;;;;;;1.37;1.27;;;14.70;91.00;;;;;;5224179;28;20447;-49
2022/10/19 12:20:53;;;;;;;10.47;1.30;;;14.80;91.20;;;;;;5227391;28;20524;-50
2022/10/19 12:23:30;;;;;;;1.20;0.93;;;15.00;90.70;;;;;;5221148;28;20499;-48
2022/10/19 12:26:13;;;;;;;6.63;0.87;;;15.00;90.10;;;;;;5224919;28;20482;-48
2022/10/19 12:28:59;;;;;;;0.93;0.70;;;14.90;90.20;;;;;;5225200;28;20936;-49
2022/10/19 12:31:31;;;;;;;2.30;1.07;;;14.70;90.60;;;;;;5225417;28;20495;-48
2022/10/19 12:34:20;;;;;;;1.90;0.93;;;14.60;91.30;;;;;;5225612;28;20541;-49
2022/10/19 12:37:14;;;;;;;0.70;0.70;;;14.50;91.80;;;;;;5226862;28;20440;-47
2022/10/19 12:40:03;;;;;;;15.33;1.37;;;14.40;90.20;;;;;;5221197;28;20429;-49
2022/10/19 12:43:00;;;;;;;0.93;0.80;;;14.50;90.60;;;;;;5218999;28;20464;-49
2022/10/19 12:45:42;;;;;;;0.90;0.90;;;14.70;90.60;;;;;;5218762;28;20434;-48
2022/10/19 12:48:17;;;;;;;4.47;1.27;;;14.90;90.30;;;;;;5219947;28;20441;-53
2022/10/19 12:50:48;;;;;;;0.70;0.60;;;15.00;90.00;;;;;;5219624;28;20929;-50
2022/10/19 12:53:22;;;;;;;0.80;0.80;;;15.10;89.60;;;;;;5226797;28;20463;-50
2022/10/19 12:56:02;;;;;;;1.37;1.00;;;15.10;90.00;;;;;;5228697;28;20180;-49
2022/10/19 12:58:42;;;;;;;0.80;0.80;;;15.10;90.10;;;;;;5227068;28;20556;-49
2022/10/19 13:01:48;;;;;;;3.03;0.87;;;15.10;90.00;;;;;;5229892;28;20437;-47
2022/10/19 13:04:23;;;;;;;3.93;1.03;;;15.00;89.50;;;;;;5161525;28;20435;-53
2022/10/19 13:06:56;;;;;;;2.60;1.40;;;14.80;90.30;;;;;;5223855;28;20443;-50
2022/10/19 13:09:41;;;;;;;1.00;1.00;;;14.80;90.90;;;;;;5224266;28;20437;-47
2022/10/19 13:12:15;;;;;;;3.87;3.27;;;14.70;90.40;;;;;;5228682;28;20457;-49
2022/10/19 13:14:51;;;;;;;10.23;3.90;;;14.70;90.80;;;;;;5226573;28;20981;-48
2022/10/19 13:17:36;;;;;;;2.50;1.50;;;14.70;90.90;;;;;;5230738;28;20506;-49
2022/10/19 13:20:13;;;;;;;3.13;1.00;;;14.50;91.40;;;;;;5226363;28;20445;-48
2022/10/19 13:23:11;;;;;;;4.20;0.90;;;14.40;91.20;;;;;;5226722;28;20685;-48
2022/10/19 13:25:42;;;;;;;1.70;1.20;;;14.40;90.80;;;;;;5225397;28;20447;-48
2022/10/19 13:28:16;;;;;;;9.63;1.20;;;14.40;91.20;;;;;;5224705;28;20433;-48
2022/10/19 13:30:46;;;;;;;1.80;1.40;;;14.70;90.50;;;;;;5226587;28;20421;-50